In Rescue
 
Open Full Screen Window  High Contrast Mode
Wind Gusting 00 knots
05
January 24, 2020 9:01 PM CST
Weather Information
Wind Direction
  360 °
Wind Speed
  05 kt (6 mph)
Wind Gust
  00 kt (0 mph)
Altimeter
30.05 in
Visibility
10 SM
Temperature
-04° C
25° F
Dewpoint
-07° C
19° F
Humidity
80%
1hr Rain Fall
00.00 in.
24hr Rain Fall
00.00 in.
Sky Condition
Overcast @ 3,200 ft
Scattered @ 1,600 ft
VFR

METAR KPWC 250301Z AUTO 36005KT 10SM SCT016 OVC032 M04/M07 A3005 RMK AO2

FAA Disclaimer: The data displayed is for advisory purposes only and is not to be used for flight planning or operations.